Time;durP1;ratioP1;P1;durP2;ratioP2;P2;SDS_P1;SDS_P2;PMS_P1;PMS_P2;Temp;Humidity;BMP_temperature;BMP_pressure;BME280_temperature;BME280_humidity;BME280_pressure;Samples;Min_cycle;Max_cycle;Signal;HPM_P1;HPM_P2
2021/07/21 00:03:55;;;;;;;8.00;5.63;;;22.90;63.90;;;;;;10462334;28;20083;-60
2021/07/21 00:08:55;;;;;;;6.80;5.60;;;22.90;63.80;;;;;;10462512;28;20043;-60
2021/07/21 00:13:58;;;;;;;7.78;6.05;;;22.90;63.80;;;;;;10461735;28;20027;-60
2021/07/21 00:19:05;;;;;;;8.35;6.60;;;22.90;63.80;;;;;;10461773;28;20039;-60
2021/07/21 00:24:06;;;;;;;6.72;6.03;;;22.90;63.70;;;;;;10462104;28;20029;-60
2021/07/21 00:29:06;;;;;;;7.20;5.50;;;22.90;63.80;;;;;;10461659;28;20112;-60
2021/07/21 00:34:07;;;;;;;6.55;5.85;;;22.90;63.70;;;;;;10461070;28;20554;-60
2021/07/21 00:39:08;;;;;;;6.78;5.75;;;22.90;63.60;;;;;;10446270;28;20545;-60
2021/07/21 00:44:08;;;;;;;7.80;6.60;;;22.80;63.50;;;;;;10460663;28;20048;-60
2021/07/21 00:49:09;;;;;;;7.45;5.80;;;22.90;63.50;;;;;;10460582;28;20075;-60
2021/07/21 00:54:10;;;;;;;8.55;6.22;;;22.90;63.50;;;;;;10460301;28;20060;-60
2021/07/21 00:59:10;;;;;;;8.63;6.15;;;22.80;63.40;;;;;;10460329;28;20040;-60
2021/07/21 01:04:11;;;;;;;7.78;6.43;;;22.80;63.40;;;;;;10460090;28;20147;-61
2021/07/21 01:09:12;;;;;;;7.53;5.88;;;22.80;63.40;;;;;;10459921;28;20500;-60
2021/07/21 01:14:22;;;;;;;7.43;5.93;;;22.80;63.40;;;;;;10459707;28;20149;-59
2021/07/21 01:19:47;;;;;;;8.85;6.30;;;22.80;63.30;;;;;;10443101;28;20029;-60
2021/07/21 01:25:18;;;;;;;7.60;6.18;;;22.80;63.30;;;;;;10460799;28;20128;-59
2021/07/21 01:30:25;;;;;;;8.10;5.90;;;22.80;63.20;;;;;;10458995;28;20041;-60
2021/07/21 01:35:40;;;;;;;6.72;5.30;;;22.80;63.20;;;;;;10449830;28;20037;-60
2021/07/21 01:40:48;;;;;;;6.57;5.88;;;22.80;63.10;;;;;;10458844;28;20440;-60
2021/07/21 01:45:52;;;;;;;7.22;5.85;;;22.80;63.10;;;;;;10458288;28;20041;-60
2021/07/21 01:50:56;;;;;;;6.28;5.32;;;22.80;63.10;;;;;;10441751;28;20033;-60
2021/07/21 01:55:57;;;;;;;7.30;5.63;;;22.70;63.00;;;;;;10457255;28;20458;-60
2021/07/21 02:00:58;;;;;;;9.13;5.78;;;22.70;63.00;;;;;;10440480;28;20044;-61
2021/07/21 02:06:04;;;;;;;7.25;6.38;;;22.70;63.10;;;;;;10439947;28;20120;-61
2021/07/21 02:11:06;;;;;;;7.32;6.22;;;22.70;62.90;;;;;;10444582;28;20029;-60
2021/07/21 02:16:07;;;;;;;6.90;5.40;;;22.70;62.90;;;;;;10444737;28;20040;-60
2021/07/21 02:21:08;;;;;;;7.60;5.60;;;22.70;62.90;;;;;;10446580;28;20036;-60
2021/07/21 02:26:09;;;;;;;6.50;5.47;;;22.70;62.80;;;;;;10444196;28;20055;-60
2021/07/21 02:31:17;;;;;;;7.95;5.93;;;22.70;62.80;;;;;;10438955;28;20050;-59
2021/07/21 02:36:18;;;;;;;6.57;5.80;;;22.70;62.80;;;;;;10456536;28;20037;-60
2021/07/21 02:41:19;;;;;;;7.22;6.20;;;22.70;62.80;;;;;;10456445;28;20095;-60
2021/07/21 02:46:20;;;;;;;7.32;5.32;;;22.60;62.70;;;;;;10456096;28;20033;-60
2021/07/21 02:51:30;;;;;;;7.40;5.63;;;22.70;62.80;;;;;;10455898;28;20424;-60
2021/07/21 02:56:36;;;;;;;6.65;5.55;;;22.60;62.70;;;;;;10439874;28;20063;-60
2021/07/21 03:01:39;;;;;;;7.63;5.63;;;22.60;62.70;;;;;;10443576;28;20539;-60
2021/07/21 03:06:40;;;;;;;8.77;6.38;;;22.60;62.70;;;;;;10437176;28;20037;-60
2021/07/21 03:11:46;;;;;;;8.10;5.95;;;22.60;62.60;;;;;;10455854;28;20100;-60
2021/07/21 03:16:51;;;;;;;8.48;5.70;;;22.60;62.60;;;;;;10437763;28;20393;-60
2021/07/21 03:21:53;;;;;;;6.72;5.55;;;22.60;62.60;;;;;;10444041;28;20040;-60
2021/07/21 03:26:56;;;;;;;6.72;5.32;;;22.60;62.50;;;;;;10437880;28;20032;-60
2021/07/21 03:31:57;;;;;;;6.40;5.70;;;22.60;62.50;;;;;;10437681;28;20431;-60
2021/07/21 03:36:59;;;;;;;8.52;5.65;;;22.60;62.50;;;;;;10436526;28;20044;-60
2021/07/21 03:42:04;;;;;;;6.97;5.60;;;22.50;62.40;;;;;;10434395;28;20083;-60
2021/07/21 03:47:05;;;;;;;7.00;5.82;;;22.50;62.40;;;;;;10436297;28;20029;-59
2021/07/21 03:52:09;;;;;;;6.40;5.03;;;22.50;62.30;;;;;;10436870;28;20025;-60
2021/07/21 03:57:11;;;;;;;6.72;5.47;;;22.50;62.40;;;;;;10437378;28;20136;-60
2021/07/21 04:02:13;;;;;;;7.80;5.88;;;22.50;62.40;;;;;;10436905;28;20032;-61
2021/07/21 04:07:16;;;;;;;6.85;5.32;;;22.50;62.40;;;;;;10436849;28;20031;-60
2021/07/21 04:12:20;;;;;;;5.78;4.82;;;22.50;62.40;;;;;;10436944;28;20166;-60
2021/07/21 04:17:22;;;;;;;6.25;5.10;;;22.50;62.40;;;;;;10437834;28;20033;-59
2021/07/21 04:22:24;;;;;;;6.75;5.90;;;22.50;62.30;;;;;;10468158;28;20051;-60
2021/07/21 04:27:25;;;;;;;6.45;5.22;;;22.50;62.30;;;;;;10461179;28;20071;-59
2021/07/21 04:32:28;;;;;;;7.60;5.53;;;22.50;62.30;;;;;;10442843;28;20021;-60
2021/07/21 04:37:29;;;;;;;7.22;5.57;;;22.50;62.30;;;;;;10457888;28;20066;-60
2021/07/21 04:42:29;;;;;;;7.53;6.15;;;22.40;62.20;;;;;;10460193;28;20041;-60
2021/07/21 04:47:31;;;;;;;7.00;5.38;;;22.40;62.20;;;;;;10459929;28;20037;-69
2021/07/21 04:52:31;;;;;;;7.65;6.25;;;22.40;62.30;;;;;;10442889;28;20457;-60
2021/07/21 04:57:32;;;;;;;8.43;5.47;;;22.40;62.30;;;;;;10442731;28;20037;-59
2021/07/21 05:02:33;;;;;;;6.70;5.00;;;22.40;62.40;;;;;;10459347;28;20035;-59
2021/07/21 05:07:33;;;;;;;6.75;5.18;;;22.40;63.00;;;;;;10459005;28;20436;-60
2021/07/21 05:12:34;;;;;;;14.27;6.00;;;22.40;62.80;;;;;;10448552;28;20419;-56
2021/07/21 05:17:35;;;;;;;7.20;5.82;;;22.50;63.80;;;;;;10459184;28;20079;-57
2021/07/21 05:22:35;;;;;;;12.35;6.63;;;22.50;63.50;;;;;;10458412;28;20083;-53
2021/07/21 05:27:36;;;;;;;11.10;5.70;;;22.50;63.70;;;;;;10459239;28;20539;-55
2021/07/21 05:32:37;;;;;;;7.88;5.18;;;22.50;64.20;;;;;;10458087;28;20557;-55
2021/07/21 05:37:38;;;;;;;10.95;6.15;;;22.50;64.40;;;;;;10458174;28;20481;-52
2021/07/21 05:42:38;;;;;;;12.30;6.25;;;22.60;64.20;;;;;;10458126;28;20048;-53
2021/07/21 05:47:40;;;;;;;13.70;6.32;;;22.60;64.10;;;;;;10457866;28;20044;-51
2021/07/21 05:52:40;;;;;;;9.18;6.22;;;22.50;64.50;;;;;;10457569;28;20035;-56
2021/07/21 05:57:44;;;;;;;11.85;6.47;;;22.50;63.90;;;;;;10457500;28;20037;-56
2021/07/21 06:02:44;;;;;;;10.25;6.15;;;22.50;64.00;;;;;;10428195;28;20112;-58
2021/07/21 06:07:45;;;;;;;20.13;6.90;;;22.50;63.90;;;;;;10432110;28;20045;-57
2021/07/21 06:12:46;;;;;;;21.95;6.10;;;22.50;64.00;;;;;;10449619;28;20466;-56
2021/07/21 06:17:47;;;;;;;10.98;6.32;;;22.50;63.80;;;;;;10450486;28;20039;-57
2021/07/21 06:22:47;;;;;;;10.73;6.63;;;22.50;64.10;;;;;;10453714;28;20103;-57
2021/07/21 06:27:50;;;;;;;10.48;5.88;;;22.50;64.40;;;;;;10450168;28;20040;-57
2021/07/21 06:32:50;;;;;;;12.63;6.07;;;22.50;64.10;;;;;;10449590;28;20086;-56
2021/07/21 06:37:51;;;;;;;15.30;5.80;;;22.50;64.10;;;;;;10449648;28;20757;-57
2021/07/21 06:42:52;;;;;;;14.40;6.13;;;22.50;64.10;;;;;;10449031;28;20088;-57
2021/07/21 06:47:52;;;;;;;21.77;7.22;;;22.50;64.30;;;;;;10448517;28;20132;-57
2021/07/21 06:52:54;;;;;;;22.50;7.05;;;22.50;64.40;;;;;;10431117;28;20025;-56
2021/07/21 06:57:54;;;;;;;15.00;6.65;;;22.50;64.60;;;;;;10440749;28;20045;-55
2021/07/21 07:02:55;;;;;;;14.07;7.30;;;22.50;64.70;;;;;;10448397;28;20044;-56
2021/07/21 07:07:56;;;;;;;19.20;7.22;;;22.50;65.00;;;;;;10425434;28;20520;-56
2021/07/21 07:12:57;;;;;;;12.60;6.55;;;22.40;65.20;;;;;;10448790;28;20108;-57
2021/07/21 07:17:59;;;;;;;11.20;5.32;;;22.40;65.20;;;;;;10448384;28;20036;-56
2021/07/21 07:22:59;;;;;;;11.57;6.55;;;22.50;65.10;;;;;;10453775;28;20481;-57
2021/07/21 07:28:00;;;;;;;9.23;5.70;;;22.40;65.20;;;;;;10448010;28;20115;-56
2021/07/21 07:33:02;;;;;;;8.80;6.18;;;22.40;65.20;;;;;;10446632;28;20055;-57
2021/07/21 07:38:03;;;;;;;9.00;5.82;;;22.40;64.80;;;;;;10436364;28;20381;-56
2021/07/21 07:43:04;;;;;;;11.13;5.93;;;22.40;64.80;;;;;;10445918;28;20067;-56
2021/07/21 07:48:05;;;;;;;11.07;6.50;;;22.40;65.10;;;;;;10446694;28;20037;-57
2021/07/21 07:53:05;;;;;;;11.43;6.40;;;22.40;64.70;;;;;;10450464;28;20545;-57
2021/07/21 07:58:06;;;;;;;10.13;6.10;;;22.40;64.80;;;;;;10455312;28;20049;-57
2021/07/21 08:03:07;;;;;;;14.13;6.10;;;22.40;64.60;;;;;;10455556;28;20058;-56
2021/07/21 08:08:08;;;;;;;8.43;6.57;;;22.40;64.40;;;;;;10453989;28;20099;-57
2021/07/21 08:13:08;;;;;;;10.10;6.72;;;22.50;64.00;;;;;;10453883;28;20158;-57
2021/07/21 08:18:09;;;;;;;10.30;7.47;;;22.50;64.50;;;;;;10450544;28;20486;-57
2021/07/21 08:23:11;;;;;;;9.15;6.70;;;22.50;64.50;;;;;;10454608;28;20404;-56
2021/07/21 08:28:16;;;;;;;8.68;6.55;;;22.50;64.60;;;;;;10454121;28;20033;-57
2021/07/21 08:33:16;;;;;;;8.73;6.07;;;22.50;64.70;;;;;;10436945;28;20017;-56
2021/07/21 08:38:17;;;;;;;8.45;6.35;;;22.50;64.80;;;;;;10452595;28;20062;-56
2021/07/21 08:43:18;;;;;;;10.95;6.38;;;22.50;64.90;;;;;;10422604;28;21032;-57
2021/07/21 08:48:19;;;;;;;9.82;6.43;;;22.60;64.90;;;;;;10433605;28;20083;-57
2021/07/21 08:53:19;;;;;;;10.88;6.55;;;22.60;64.90;;;;;;10452175;28;20144;-58
2021/07/21 08:58:20;;;;;;;10.05;6.13;;;22.60;65.00;;;;;;10441502;28;20044;-58
2021/07/21 09:03:22;;;;;;;8.43;5.38;;;22.60;64.70;;;;;;10449308;28;20095;-57
2021/07/21 09:08:23;;;;;;;6.38;5.30;;;22.60;64.80;;;;;;10448691;28;20128;-57
2021/07/21 09:13:24;;;;;;;10.30;6.13;;;22.60;64.70;;;;;;10452638;28;20033;-58
2021/07/21 09:18:28;;;;;;;8.18;5.38;;;22.60;64.80;;;;;;10434829;28;20076;-58
2021/07/21 09:23:38;;;;;;;10.95;7.13;;;22.70;64.60;;;;;;10441827;28;20091;-58
2021/07/21 09:28:45;;;;;;;7.97;6.32;;;22.70;64.10;;;;;;10452208;28;20045;-58
2021/07/21 09:33:45;;;;;;;7.15;5.68;;;22.70;64.20;;;;;;10452200;28;20094;-58
2021/07/21 09:38:47;;;;;;;8.52;5.85;;;22.70;64.20;;;;;;10452031;28;20144;-57
2021/07/21 09:43:47;;;;;;;9.93;6.47;;;22.70;64.30;;;;;;10451840;28;20148;-58
2021/07/21 09:48:49;;;;;;;8.65;6.15;;;22.70;64.30;;;;;;10432858;28;20037;-58
2021/07/21 09:53:50;;;;;;;9.77;6.13;;;22.70;64.00;;;;;;10451229;28;20029;-58
2021/07/21 09:58:51;;;;;;;7.07;5.63;;;22.70;64.10;;;;;;10433572;28;20033;-57
2021/07/21 10:04:04;;;;;;;7.22;5.70;;;22.70;64.30;;;;;;10450652;28;20128;-58
2021/07/21 10:09:05;;;;;;;8.90;5.97;;;22.80;64.20;;;;;;10449438;28;20063;-57
2021/07/21 10:14:06;;;;;;;7.22;5.85;;;22.80;63.60;;;;;;10449659;28;20044;-57
2021/07/21 10:19:15;;;;;;;7.70;5.35;;;22.80;63.70;;;;;;10450204;28;20055;-57
2021/07/21 10:24:16;;;;;;;8.40;6.18;;;22.80;63.50;;;;;;10444631;28;20037;-56
2021/07/21 10:29:17;;;;;;;7.88;6.40;;;22.80;63.60;;;;;;10424322;28;20120;-58
2021/07/21 10:34:20;;;;;;;7.88;5.75;;;22.90;63.30;;;;;;10450014;28;20116;-58
2021/07/21 10:39:32;;;;;;;8.90;6.43;;;22.90;63.60;;;;;;10449214;28;20068;-57
2021/07/21 10:44:34;;;;;;;8.63;6.35;;;22.90;62.90;;;;;;10449006;28;20040;-57
2021/07/21 10:55:28;;;;;;;7.25;5.60;;;22.90;63.40;;;;;;10403665;28;20041;-58
2021/07/21 11:00:42;;;;;;;10.97;6.53;;;23.00;63.60;;;;;;10448026;28;20060;-57
2021/07/21 11:05:44;;;;;;;8.50;5.30;;;23.00;63.50;;;;;;10445987;28;20056;-58
2021/07/21 11:10:48;;;;;;;9.27;6.38;;;22.90;63.70;;;;;;10431131;28;20029;-58
2021/07/21 11:15:50;;;;;;;9.90;6.40;;;23.00;64.00;;;;;;10448671;28;20040;-48
2021/07/21 11:21:01;;;;;;;7.97;6.07;;;23.00;64.10;;;;;;10450007;28;20543;-54
2021/07/21 11:26:34;;;;;;;7.93;5.97;;;23.00;64.20;;;;;;10444842;28;20033;-54
2021/07/21 11:31:49;;;;;;;10.68;6.20;;;23.00;63.70;;;;;;10456991;28;20504;-55
2021/07/21 11:36:54;;;;;;;7.43;5.78;;;23.10;63.70;;;;;;10456786;28;20076;-53
2021/07/21 11:41:57;;;;;;;12.38;7.20;;;23.00;63.90;;;;;;10455974;28;20052;-53
2021/07/21 11:47:01;;;;;;;9.27;7.60;;;23.00;63.70;;;;;;10456087;28;20500;-53
2021/07/21 11:52:06;;;;;;;9.68;7.05;;;23.00;62.80;;;;;;10437884;28;20041;-54
2021/07/21 11:57:09;;;;;;;8.15;6.97;;;23.10;62.80;;;;;;10455751;28;20064;-53
2021/07/21 12:02:14;;;;;;;9.32;6.88;;;23.10;62.40;;;;;;10455672;28;20047;-52
2021/07/21 12:07:21;;;;;;;9.40;7.55;;;23.10;62.60;;;;;;10455204;28;20041;-54
2021/07/21 12:12:28;;;;;;;14.02;6.88;;;23.10;62.60;;;;;;10453073;28;20029;-52
2021/07/21 12:17:29;;;;;;;9.55;6.43;;;23.10;62.30;;;;;;10437522;28;20036;-56
2021/07/21 12:22:33;;;;;;;9.32;6.90;;;23.10;62.90;;;;;;10460074;28;20068;-47
2021/07/21 12:27:44;;;;;;;11.18;6.70;;;23.10;62.90;;;;;;10436679;28;20048;-50
2021/07/21 12:32:47;;;;;;;10.38;6.47;;;23.10;62.60;;;;;;10454468;28;20827;-51
2021/07/21 12:37:51;;;;;;;13.50;6.80;;;23.10;63.00;;;;;;10454427;28;20112;-51
2021/07/21 12:42:56;;;;;;;12.98;7.88;;;23.00;63.10;;;;;;10436226;28;20060;-52
2021/07/21 12:47:57;;;;;;;11.15;7.25;;;23.00;62.80;;;;;;10450571;28;20032;-53
2021/07/21 12:53:05;;;;;;;9.52;6.70;;;23.10;62.60;;;;;;10452892;28;20028;-51
2021/07/21 12:58:08;;;;;;;9.68;7.28;;;23.10;62.70;;;;;;10452844;28;20054;-51
2021/07/21 13:03:13;;;;;;;9.57;6.85;;;23.10;62.50;;;;;;10434591;28;20044;-51
2021/07/21 13:08:26;;;;;;;8.43;7.30;;;23.10;62.70;;;;;;10451750;28;20033;-51
2021/07/21 13:13:33;;;;;;;8.98;6.80;;;23.10;62.20;;;;;;10451123;28;20040;-48
2021/07/21 13:18:40;;;;;;;8.45;7.35;;;23.10;62.00;;;;;;10451807;28;20036;-49
2021/07/21 13:23:43;;;;;;;9.25;6.72;;;23.10;62.40;;;;;;10451555;28;20120;-50
2021/07/21 13:28:47;;;;;;;15.18;7.53;;;23.10;62.50;;;;;;10451219;28;20040;-55
2021/07/21 13:33:57;;;;;;;11.60;6.85;;;23.10;62.60;;;;;;10451710;28;20037;-55
2021/07/21 13:39:03;;;;;;;10.60;7.75;;;23.20;62.60;;;;;;10434075;28;20427;-52
2021/07/21 13:44:17;;;;;;;10.55;6.97;;;23.10;62.60;;;;;;10434545;28;20059;-51
2021/07/21 13:49:43;;;;;;;11.93;8.68;;;23.20;63.00;;;;;;10450716;28;20041;-55
2021/07/21 13:54:44;;;;;;;14.43;8.50;;;23.20;62.90;;;;;;10449749;28;20040;-52
2021/07/21 13:59:46;;;;;;;12.43;8.27;;;23.20;62.40;;;;;;10451118;28;20610;-53
2021/07/21 14:04:48;;;;;;;22.30;8.48;;;23.20;62.10;;;;;;10463985;28;20025;-50
2021/07/21 14:09:50;;;;;;;13.82;8.95;;;23.20;61.90;;;;;;10450319;28;20061;-45
2021/07/21 14:14:50;;;;;;;17.42;9.65;;;23.20;61.70;;;;;;10441264;28;20504;-52
2021/07/21 14:19:51;;;;;;;17.33;9.35;;;23.20;61.40;;;;;;10450329;28;20116;-57
2021/07/21 14:24:52;;;;;;;18.50;8.70;;;23.20;61.50;;;;;;10446304;28;20551;-57
2021/07/21 14:29:53;;;;;;;16.08;9.27;;;23.20;61.70;;;;;;10449364;28;20112;-57
2021/07/21 14:34:54;;;;;;;15.85;9.23;;;23.20;61.60;;;;;;10449552;28;20498;-58
2021/07/21 14:39:54;;;;;;;17.25;9.05;;;23.40;60.10;;;;;;10449536;28;20175;-56
2021/07/21 14:44:55;;;;;;;14.68;9.05;;;23.30;60.80;;;;;;10449459;28;20393;-59
2021/07/21 14:49:56;;;;;;;17.40;9.90;;;23.20;61.20;;;;;;10448615;28;20053;-59
2021/07/21 14:54:56;;;;;;;20.40;10.27;;;23.20;61.40;;;;;;10448460;28;20047;-59
2021/07/21 14:59:57;;;;;;;16.83;9.40;;;23.20;61.70;;;;;;10449183;28;20112;-57
2021/07/21 15:04:58;;;;;;;16.88;8.98;;;23.20;61.40;;;;;;10448597;28;20076;-58
2021/07/21 15:09:59;;;;;;;17.10;9.10;;;23.20;61.60;;;;;;10448945;28;20112;-57
2021/07/21 15:15:01;;;;;;;21.25;15.75;;;23.20;61.70;;;;;;10447891;28;20116;-58
2021/07/21 15:20:05;;;;;;;14.00;8.80;;;23.20;62.10;;;;;;10452086;28;20032;-58
2021/07/21 15:25:07;;;;;;;12.90;9.60;;;23.20;61.80;;;;;;10430066;28;20400;-57
2021/07/21 15:30:10;;;;;;;11.18;9.40;;;23.20;62.00;;;;;;10445553;28;20689;-58
2021/07/21 15:35:15;;;;;;;15.20;8.85;;;23.20;61.90;;;;;;10453991;28;20163;-57
2021/07/21 15:40:18;;;;;;;11.93;9.98;;;23.20;61.60;;;;;;10453957;28;20540;-57
2021/07/21 15:45:19;;;;;;;11.43;8.68;;;23.20;61.80;;;;;;10436559;28;20067;-57
2021/07/21 15:50:20;;;;;;;16.10;10.35;;;23.20;61.80;;;;;;10455161;28;20396;-57
2021/07/21 15:55:20;;;;;;;14.05;8.63;;;23.20;61.50;;;;;;10437197;28;20082;-57
2021/07/21 16:00:22;;;;;;;12.60;8.27;;;23.20;61.60;;;;;;10454851;28;20144;-56
2021/07/21 16:05:23;;;;;;;15.20;9.15;;;23.20;61.60;;;;;;10454470;28;20035;-56
2021/07/21 16:10:24;;;;;;;13.85;9.90;;;23.10;61.50;;;;;;10454169;28;20041;-57
2021/07/21 16:15:25;;;;;;;11.60;9.93;;;23.10;61.20;;;;;;10458411;28;20063;-58
2021/07/21 16:20:26;;;;;;;14.02;9.85;;;23.10;61.10;;;;;;10461717;28;20029;-57
2021/07/21 16:25:32;;;;;;;14.15;9.48;;;23.10;61.30;;;;;;10460872;28;20039;-57
2021/07/21 16:30:33;;;;;;;13.23;8.52;;;23.10;61.40;;;;;;10460941;28;20029;-56
2021/07/21 16:35:33;;;;;;;14.20;9.18;;;23.10;60.90;;;;;;10460535;28;20032;-58
2021/07/21 16:40:34;;;;;;;11.65;9.10;;;23.10;60.90;;;;;;10443022;28;20124;-59
2021/07/21 16:45:35;;;;;;;11.32;8.75;;;23.10;60.80;;;;;;10459155;28;20044;-59
2021/07/21 16:50:36;;;;;;;11.15;8.85;;;23.10;60.90;;;;;;10458062;28;20029;-59
2021/07/21 16:55:36;;;;;;;11.57;8.48;;;23.10;60.90;;;;;;10446701;28;20031;-59
2021/07/21 17:00:37;;;;;;;14.63;8.15;;;23.10;60.90;;;;;;10459124;28;20033;-58
2021/07/21 17:05:38;;;;;;;13.38;8.85;;;23.10;61.00;;;;;;10431220;28;20078;-61
2021/07/21 17:10:39;;;;;;;11.77;8.48;;;23.10;61.30;;;;;;10459753;28;20111;-57
2021/07/21 17:15:40;;;;;;;13.00;8.65;;;23.10;61.20;;;;;;10459192;28;20095;-57
2021/07/21 17:20:42;;;;;;;10.57;8.52;;;23.10;61.50;;;;;;10461022;28;20063;-59
2021/07/21 17:25:45;;;;;;;10.63;8.45;;;23.10;61.70;;;;;;10458280;28;20071;-58
2021/07/21 17:30:48;;;;;;;11.57;8.43;;;23.10;61.10;;;;;;10459308;28;20529;-58
2021/07/21 17:35:49;;;;;;;10.27;7.97;;;23.10;61.30;;;;;;10458576;28;20029;-58
2021/07/21 17:40:50;;;;;;;11.85;8.68;;;23.10;61.30;;;;;;10441993;28;21464;-60
2021/07/21 17:45:51;;;;;;;12.88;8.38;;;23.10;61.50;;;;;;10452950;28;20497;-59
2021/07/21 17:50:52;;;;;;;12.75;9.75;;;23.10;61.50;;;;;;10434020;28;20210;-59
2021/07/21 17:55:54;;;;;;;14.25;8.80;;;23.10;61.60;;;;;;10456495;28;20507;-58
2021/07/21 18:00:56;;;;;;;10.77;8.30;;;23.10;61.80;;;;;;10457601;28;20033;-58
2021/07/21 18:05:58;;;;;;;10.85;8.13;;;23.10;61.70;;;;;;10457774;28;20056;-58
2021/07/21 18:10:59;;;;;;;11.13;8.05;;;23.10;61.80;;;;;;10457602;28;20523;-58
2021/07/21 18:16:00;;;;;;;12.07;9.00;;;23.10;62.00;;;;;;10457023;28;20082;-58
2021/07/21 18:21:03;;;;;;;12.60;7.95;;;23.10;61.70;;;;;;10463613;28;20111;-58
2021/07/21 18:26:04;;;;;;;9.98;7.85;;;23.10;61.80;;;;;;10457113;28;20376;-58
2021/07/21 18:31:05;;;;;;;13.52;8.90;;;23.10;61.80;;;;;;10456766;28;20029;-58
2021/07/21 18:36:07;;;;;;;13.60;8.90;;;23.10;61.90;;;;;;10456641;28;20021;-58
2021/07/21 18:41:08;;;;;;;14.60;8.75;;;23.10;61.90;;;;;;10456324;28;20067;-59
2021/07/21 18:46:08;;;;;;;12.18;8.77;;;23.10;62.00;;;;;;10456605;28;20041;-58
2021/07/21 18:51:09;;;;;;;15.73;8.60;;;23.10;62.10;;;;;;10442801;28;20037;-59
2021/07/21 18:56:10;;;;;;;10.93;8.55;;;23.10;62.30;;;;;;10438285;28;20032;-58
2021/07/21 19:01:11;;;;;;;10.25;8.73;;;23.10;62.40;;;;;;10438360;28;20104;-59
2021/07/21 19:06:11;;;;;;;11.10;8.85;;;23.10;62.50;;;;;;10456001;28;20033;-59
2021/07/21 19:11:13;;;;;;;13.10;9.30;;;23.10;62.60;;;;;;10454185;28;20111;-59
2021/07/21 19:16:14;;;;;;;13.57;9.77;;;23.10;62.70;;;;;;10455173;28;20017;-58
2021/07/21 19:21:15;;;;;;;12.07;9.75;;;23.10;63.00;;;;;;10461645;28;20116;-58
2021/07/21 19:26:16;;;;;;;11.32;9.55;;;23.10;64.30;;;;;;10437656;28;20105;-58
2021/07/21 19:31:17;;;;;;;15.35;10.20;;;23.10;64.30;;;;;;10454973;28;20037;-58
2021/07/21 19:36:18;;;;;;;12.65;9.65;;;23.10;64.00;;;;;;10454950;28;20033;-58
2021/07/21 19:41:19;;;;;;;14.43;9.90;;;23.10;63.90;;;;;;10454128;28;20064;-58
2021/07/21 19:46:20;;;;;;;15.13;10.05;;;23.10;64.10;;;;;;10436170;28;20151;-58
2021/07/21 19:51:21;;;;;;;14.88;10.20;;;23.10;64.30;;;;;;10460475;28;20024;-58
2021/07/21 19:56:21;;;;;;;20.60;10.63;;;23.10;64.40;;;;;;10462714;28;20437;-58
2021/07/21 20:01:22;;;;;;;13.82;10.65;;;23.10;64.50;;;;;;10461570;28;20033;-58
2021/07/21 20:06:23;;;;;;;12.80;9.77;;;23.10;64.60;;;;;;10462479;28;20449;-58
2021/07/21 20:11:24;;;;;;;10.48;8.70;;;23.00;64.60;;;;;;10461944;28;20043;-58
2021/07/21 20:16:25;;;;;;;12.27;9.95;;;23.00;64.60;;;;;;10462116;28;20112;-58
2021/07/21 20:21:25;;;;;;;13.23;10.20;;;23.10;64.60;;;;;;10468957;28;20041;-58
2021/07/21 20:26:26;;;;;;;14.57;10.40;;;23.00;64.60;;;;;;10461428;28;20025;-58
2021/07/21 20:31:27;;;;;;;13.98;10.15;;;23.00;64.60;;;;;;10461321;28;20525;-58
2021/07/21 20:36:28;;;;;;;13.63;9.20;;;23.00;64.60;;;;;;10461556;28;20424;-58
2021/07/21 20:41:28;;;;;;;12.88;10.57;;;23.00;64.70;;;;;;10460280;28;20375;-58
2021/07/21 20:46:29;;;;;;;12.05;9.05;;;23.00;64.60;;;;;;10460058;28;20378;-58
2021/07/21 20:51:31;;;;;;;12.45;9.95;;;23.00;64.70;;;;;;10433892;28;20029;-58
2021/07/21 20:56:32;;;;;;;11.55;8.88;;;23.00;64.70;;;;;;10460979;28;20029;-58
2021/07/21 21:01:33;;;;;;;11.55;9.10;;;23.00;64.70;;;;;;10460306;28;20028;-58
2021/07/21 21:06:33;;;;;;;12.70;9.65;;;23.00;64.70;;;;;;10460277;28;20071;-58
2021/07/21 21:11:34;;;;;;;11.02;9.57;;;23.00;64.70;;;;;;10459955;28;20040;-59
2021/07/21 21:16:35;;;;;;;12.55;9.32;;;23.00;64.80;;;;;;10459860;28;20033;-58
2021/07/21 21:21:36;;;;;;;11.60;10.10;;;23.00;64.80;;;;;;10465743;28;20465;-58
2021/07/21 21:26:38;;;;;;;12.50;10.20;;;23.00;64.80;;;;;;10459643;28;20370;-58
2021/07/21 21:31:39;;;;;;;11.95;10.63;;;23.00;64.80;;;;;;10458886;28;20068;-59
2021/07/21 21:36:40;;;;;;;11.13;9.90;;;23.00;64.80;;;;;;10458966;28;20083;-58
2021/07/21 21:41:40;;;;;;;12.23;10.18;;;23.00;64.80;;;;;;10458859;28;20123;-58
2021/07/21 21:46:41;;;;;;;14.05;9.18;;;23.00;64.80;;;;;;10458768;28;20029;-58
2021/07/21 21:51:42;;;;;;;11.75;9.15;;;23.00;64.80;;;;;;10458556;28;20393;-58
2021/07/21 21:56:44;;;;;;;11.65;9.50;;;23.00;64.80;;;;;;10458542;28;20060;-58
2021/07/21 22:01:45;;;;;;;12.57;10.68;;;23.00;64.80;;;;;;10457778;28;20037;-57
2021/07/21 22:06:46;;;;;;;9.82;8.60;;;23.00;64.80;;;;;;10457995;28;20120;-57
2021/07/21 22:11:46;;;;;;;12.10;9.40;;;23.00;64.80;;;;;;10439298;28;20082;-58
2021/07/21 22:16:47;;;;;;;11.60;8.90;;;23.00;64.80;;;;;;10457562;28;20389;-57
2021/07/21 22:21:48;;;;;;;12.10;10.63;;;23.00;64.90;;;;;;10463516;28;20099;-58
2021/07/21 22:26:49;;;;;;;9.85;8.82;;;23.00;64.90;;;;;;10457321;28;20120;-58
2021/07/21 22:31:54;;;;;;;11.02;9.93;;;23.00;64.90;;;;;;10439243;28;20025;-58
2021/07/21 22:36:58;;;;;;;11.30;8.95;;;23.00;65.00;;;;;;10456645;28;20029;-59
2021/07/21 22:42:05;;;;;;;11.00;8.90;;;23.00;65.00;;;;;;10456728;28;20547;-58
2021/07/21 22:47:08;;;;;;;10.98;9.25;;;23.00;65.10;;;;;;10455905;28;20029;-59
2021/07/21 22:52:08;;;;;;;11.38;9.70;;;22.90;65.00;;;;;;10456398;28;20151;-58
2021/07/21 22:57:09;;;;;;;13.73;10.48;;;22.90;65.10;;;;;;10456154;28;20041;-58
2021/07/21 23:03:06;;;;;;;12.25;9.80;;;22.90;65.20;;;;;;10455584;28;20029;-58
2021/07/21 23:09:03;;;;;;;10.77;9.43;;;22.90;65.10;;;;;;10455524;28;20386;-58
2021/07/21 23:15:00;;;;;;;10.38;8.75;;;22.90;65.20;;;;;;10455663;28;20048;-58
2021/07/21 23:20:01;;;;;;;10.70;9.38;;;22.90;65.20;;;;;;10461829;28;20115;-58
2021/07/21 23:25:03;;;;;;;10.77;9.43;;;22.90;65.20;;;;;;10436785;28;20051;-58
2021/07/21 23:30:07;;;;;;;11.77;10.35;;;22.90;65.20;;;;;;10437736;28;20116;-58
2021/07/21 23:35:11;;;;;;;10.02;9.02;;;22.90;65.80;;;;;;10454284;28;20055;-58
2021/07/21 23:40:14;;;;;;;10.75;9.57;;;22.90;65.20;;;;;;10437632;28;20080;-58
2021/07/21 23:45:15;;;;;;;11.88;9.57;;;22.90;65.30;;;;;;10437664;28;20033;-58
2021/07/21 23:50:16;;;;;;;10.10;9.02;;;22.90;65.30;;;;;;10454964;28;20045;-58
2021/07/21 23:55:17;;;;;;;11.75;9.57;;;22.90;65.30;;;;;;10437434;28;20032;-58
